sensor_id;sensor_type;location;lat;lon;timestamp;pressure;altitude;pressure_sealevel;temperature;humidity
35908;BME280;22003;50.320;8.054;2023-03-03T00:12:26;100142.16;;;-2.67;93.98
35908;BME280;22003;50.320;8.054;2023-03-03T00:22:37;99537.22;;;-6.69;94.15
35908;BME280;22003;50.320;8.054;2023-03-03T00:27:45;99604.63;;;-6.30;94.73
35908;BME280;22003;50.320;8.054;2023-03-03T00:30:26;99499.66;;;-6.88;93.01
35908;BME280;22003;50.320;8.054;2023-03-03T00:35:42;99667.88;;;-5.40;95.05
35908;BME280;22003;50.320;8.054;2023-03-03T00:38:15;100170.59;;;-2.60;95.74
35908;BME280;22003;50.320;8.054;2023-03-03T00:40:42;100191.34;;;-2.60;95.36
35908;BME280;22003;50.320;8.054;2023-03-03T00:45:53;99488.94;;;-6.53;94.41
35908;BME280;22003;50.320;8.054;2023-03-03T00:48:41;99890.34;;;-4.40;95.00
35908;BME280;22003;50.320;8.054;2023-03-03T00:53:39;99687.63;;;-5.98;94.66
35908;BME280;22003;50.320;8.054;2023-03-03T00:56:05;100147.22;;;-3.10;94.97
35908;BME280;22003;50.320;8.054;2023-03-03T00:58:30;99568.72;;;-6.46;95.53
35908;BME280;22003;50.320;8.054;2023-03-03T01:00:56;99946.94;;;-4.18;94.28
35908;BME280;22003;50.320;8.054;2023-03-03T01:05:58;99769.03;;;-5.78;94.27
35908;BME280;22003;50.320;8.054;2023-03-03T01:08:24;100095.78;;;-3.33;94.97
35908;BME280;22003;50.320;8.054;2023-03-03T01:10:50;100152.31;;;-3.04;94.77
35908;BME280;22003;50.320;8.054;2023-03-03T01:13:17;100146.38;;;-3.12;94.72
35908;BME280;22003;50.320;8.054;2023-03-03T01:15:43;100158.19;;;-2.93;96.58
35908;BME280;22003;50.320;8.054;2023-03-03T01:18:10;100150.44;;;-2.94;96.28
35908;BME280;22003;50.320;8.054;2023-03-03T01:20:36;100154.91;;;-3.04;96.04
35908;BME280;22003;50.320;8.054;2023-03-03T01:23:01;100048.91;;;-3.73;96.31
35908;BME280;22003;50.320;8.054;2023-03-03T01:25:27;100145.44;;;-3.06;96.63
35908;BME280;22003;50.320;8.054;2023-03-03T01:27:53;100095.09;;;-3.46;96.73
35908;BME280;22003;50.320;8.054;2023-03-03T01:30:18;100148.13;;;-3.11;96.88
35908;BME280;22003;50.320;8.054;2023-03-03T01:32:43;100085.13;;;-3.17;98.52
35908;BME280;22003;50.320;8.054;2023-03-03T01:35:09;100151.66;;;-2.66;97.09
35908;BME280;22003;50.320;8.054;2023-03-03T01:37:35;100154.22;;;-2.18;98.66
35908;BME280;22003;50.320;8.054;2023-03-03T01:40:00;100058.81;;;-2.93;98.89
35908;BME280;22003;50.320;8.054;2023-03-03T01:42:26;100140.03;;;-2.43;98.82
35908;BME280;22003;50.320;8.054;2023-03-03T01:45:17;100139.13;;;-2.42;98.71
35908;BME280;22003;50.320;8.054;2023-03-03T01:47:47;100124.41;;;-2.42;97.23
35908;BME280;22003;50.320;8.054;2023-03-03T01:50:25;100115.56;;;-2.78;95.88
35908;BME280;22003;50.320;8.054;2023-03-03T01:52:52;100109.84;;;-2.97;95.64
35908;BME280;22003;50.320;8.054;2023-03-03T01:55:21;100120.53;;;-3.16;96.23
35908;BME280;22003;50.320;8.054;2023-03-03T02:00:31;100119.41;;;-3.00;97.14
35908;BME280;22003;50.320;8.054;2023-03-03T02:02:58;100119.69;;;-3.15;97.72
35908;BME280;22003;50.320;8.054;2023-03-03T02:05:23;100096.00;;;-3.48;97.72
35908;BME280;22003;50.320;8.054;2023-03-03T02:07:50;100130.41;;;-3.40;97.73
35908;BME280;22003;50.320;8.054;2023-03-03T02:10:17;100142.34;;;-3.30;98.34
35908;BME280;22003;50.320;8.054;2023-03-03T02:12:48;100113.31;;;-3.52;98.50
35908;BME280;22003;50.320;8.054;2023-03-03T02:15:22;100144.22;;;-3.39;99.00
35908;BME280;22003;50.320;8.054;2023-03-03T02:17:49;100143.44;;;-3.46;98.75
35908;BME280;22003;50.320;8.054;2023-03-03T02:28:32;100148.03;;;-3.66;97.20
35908;BME280;22003;50.320;8.054;2023-03-03T02:30:59;100151.50;;;-3.64;97.89
35908;BME280;22003;50.320;8.054;2023-03-03T02:33:25;100150.78;;;-3.76;98.39
35908;BME280;22003;50.320;8.054;2023-03-03T02:35:51;100127.75;;;-3.97;98.68
35908;BME280;22003;50.320;8.054;2023-03-03T02:38:36;100156.91;;;-3.84;98.70
35908;BME280;22003;50.320;8.054;2023-03-03T02:43:50;100165.59;;;-3.87;99.63
35908;BME280;22003;50.320;8.054;2023-03-03T02:46:17;100157.69;;;-3.76;99.56
35908;BME280;22003;50.320;8.054;2023-03-03T02:48:43;100116.38;;;-3.85;100.00
35908;BME280;22003;50.320;8.054;2023-03-03T02:51:08;100075.88;;;-3.88;100.00
35908;BME280;22003;50.320;8.054;2023-03-03T02:53:34;100113.13;;;-4.01;98.63
35908;BME280;22003;50.320;8.054;2023-03-03T02:55:59;100143.19;;;-3.88;98.78
35908;BME280;22003;50.320;8.054;2023-03-03T02:58:24;100081.63;;;-4.34;98.69
35908;BME280;22003;50.320;8.054;2023-03-03T03:00:49;100065.31;;;-4.39;99.22
35908;BME280;22003;50.320;8.054;2023-03-03T03:03:15;99961.00;;;-5.07;98.24
35908;BME280;22003;50.320;8.054;2023-03-03T03:05:40;100102.06;;;-4.12;98.36
35908;BME280;22003;50.320;8.054;2023-03-03T03:08:05;100041.59;;;-4.71;98.19
35908;BME280;22003;50.320;8.054;2023-03-03T03:10:31;100106.03;;;-4.55;98.32
35908;BME280;22003;50.320;8.054;2023-03-03T03:12:56;100099.44;;;-4.08;99.19
35908;BME280;22003;50.320;8.054;2023-03-03T03:15:21;100174.22;;;-3.86;98.53
35908;BME280;22003;50.320;8.054;2023-03-03T03:17:46;100128.72;;;-4.06;98.28
35908;BME280;22003;50.320;8.054;2023-03-03T03:20:12;100095.38;;;-4.29;99.31
35908;BME280;22003;50.320;8.054;2023-03-03T03:22:37;100101.41;;;-4.27;99.34
35908;BME280;22003;50.320;8.054;2023-03-03T03:25:03;100168.91;;;-3.76;99.28
35908;BME280;22003;50.320;8.054;2023-03-03T03:27:28;100105.91;;;-4.42;98.49
35908;BME280;22003;50.320;8.054;2023-03-03T03:29:53;100118.84;;;-4.44;98.37
35908;BME280;22003;50.320;8.054;2023-03-03T03:32:18;100124.94;;;-4.51;97.95
35908;BME280;22003;50.320;8.054;2023-03-03T03:34:44;100049.66;;;-5.02;98.25
35908;BME280;22003;50.320;8.054;2023-03-03T03:37:09;100109.50;;;-4.57;99.48
35908;BME280;22003;50.320;8.054;2023-03-03T03:39:35;100072.50;;;-4.61;99.40
35908;BME280;22003;50.320;8.054;2023-03-03T03:42:00;100127.50;;;-4.48;99.23
35908;BME280;22003;50.320;8.054;2023-03-03T03:44:26;100154.97;;;-4.39;99.67
35908;BME280;22003;50.320;8.054;2023-03-03T03:46:51;100119.13;;;-4.73;99.77
35908;BME280;22003;50.320;8.054;2023-03-03T03:49:16;100130.25;;;-4.63;100.00
35908;BME280;22003;50.320;8.054;2023-03-03T03:51:41;100147.34;;;-4.50;100.00
35908;BME280;22003;50.320;8.054;2023-03-03T03:54:07;100156.81;;;-4.47;100.00
35908;BME280;22003;50.320;8.054;2023-03-03T03:56:32;100101.97;;;-4.77;100.00
35908;BME280;22003;50.320;8.054;2023-03-03T03:58:57;100185.16;;;-4.38;100.00
35908;BME280;22003;50.320;8.054;2023-03-03T04:01:23;100072.66;;;-4.78;100.00
35908;BME280;22003;50.320;8.054;2023-03-03T04:03:49;100138.84;;;-4.61;100.00
35908;BME280;22003;50.320;8.054;2023-03-03T04:06:14;100134.66;;;-4.73;100.00
35908;BME280;22003;50.320;8.054;2023-03-03T04:08:39;100135.50;;;-4.71;100.00
35908;BME280;22003;50.320;8.054;2023-03-03T04:11:05;100156.03;;;-4.54;100.00
35908;BME280;22003;50.320;8.054;2023-03-03T04:13:30;100161.34;;;-4.69;100.00
35908;BME280;22003;50.320;8.054;2023-03-03T04:15:59;100125.31;;;-4.88;100.00
35908;BME280;22003;50.320;8.054;2023-03-03T04:18:24;100168.69;;;-4.30;100.00
35908;BME280;22003;50.320;8.054;2023-03-03T04:20:49;100123.38;;;-4.64;100.00
35908;BME280;22003;50.320;8.054;2023-03-03T04:23:16;100148.41;;;-4.66;100.00
35908;BME280;22003;50.320;8.054;2023-03-03T04:25:45;100119.25;;;-4.85;100.00
35908;BME280;22003;50.320;8.054;2023-03-03T04:28:10;100190.53;;;-4.61;100.00
35908;BME280;22003;50.320;8.054;2023-03-03T04:30:36;100066.22;;;-5.23;100.00
35908;BME280;22003;50.320;8.054;2023-03-03T04:33:01;99995.19;;;-5.73;100.00
35908;BME280;22003;50.320;8.054;2023-03-03T04:35:26;100073.28;;;-5.43;100.00
35908;BME280;22003;50.320;8.054;2023-03-03T04:37:51;100042.47;;;-5.68;100.00
35908;BME280;22003;50.320;8.054;2023-03-03T04:40:17;100170.22;;;-5.01;100.00
35908;BME280;22003;50.320;8.054;2023-03-03T04:42:42;99999.47;;;-5.69;100.00
35908;BME280;22003;50.320;8.054;2023-03-03T04:45:08;100048.88;;;-5.10;100.00
35908;BME280;22003;50.320;8.054;2023-03-03T04:47:34;100116.41;;;-4.59;100.00
35908;BME280;22003;50.320;8.054;2023-03-03T04:49:59;100146.97;;;-4.15;100.00
35908;BME280;22003;50.320;8.054;2023-03-03T04:52:25;100124.03;;;-4.47;100.00
35908;BME280;22003;50.320;8.054;2023-03-03T04:54:50;100039.63;;;-5.33;100.00
35908;BME280;22003;50.320;8.054;2023-03-03T04:57:15;100083.28;;;-5.07;100.00
35908;BME280;22003;50.320;8.054;2023-03-03T04:59:40;100183.59;;;-4.56;100.00
35908;BME280;22003;50.320;8.054;2023-03-03T05:02:06;100140.88;;;-4.92;100.00
35908;BME280;22003;50.320;8.054;2023-03-03T05:04:31;100114.41;;;-5.23;100.00
35908;BME280;22003;50.320;8.054;2023-03-03T05:06:56;100146.13;;;-5.06;100.00
35908;BME280;22003;50.320;8.054;2023-03-03T05:09:22;100106.91;;;-5.55;100.00
35908;BME280;22003;50.320;8.054;2023-03-03T05:11:47;100159.13;;;-5.14;100.00
35908;BME280;22003;50.320;8.054;2023-03-03T05:14:13;100182.25;;;-4.97;100.00
35908;BME280;22003;50.320;8.054;2023-03-03T05:16:38;100156.53;;;-5.11;100.00
35908;BME280;22003;50.320;8.054;2023-03-03T05:19:03;100209.19;;;-4.27;100.00
35908;BME280;22003;50.320;8.054;2023-03-03T05:21:28;100193.38;;;-4.87;100.00
35908;BME280;22003;50.320;8.054;2023-03-03T05:23:54;100151.38;;;-5.17;100.00
35908;BME280;22003;50.320;8.054;2023-03-03T05:26:19;100213.25;;;-4.97;100.00
35908;BME280;22003;50.320;8.054;2023-03-03T05:28:44;100175.59;;;-5.28;100.00
35908;BME280;22003;50.320;8.054;2023-03-03T05:31:10;100171.28;;;-5.26;100.00
35908;BME280;22003;50.320;8.054;2023-03-03T05:33:35;100208.13;;;-5.03;100.00
35908;BME280;22003;50.320;8.054;2023-03-03T05:36:01;100143.81;;;-5.37;100.00
35908;BME280;22003;50.320;8.054;2023-03-03T05:38:26;100151.50;;;-5.34;100.00
35908;BME280;22003;50.320;8.054;2023-03-03T05:40:51;100182.41;;;-5.15;100.00
35908;BME280;22003;50.320;8.054;2023-03-03T05:43:16;100093.03;;;-5.41;100.00
35908;BME280;22003;50.320;8.054;2023-03-03T05:45:42;100187.38;;;-4.91;100.00
35908;BME280;22003;50.320;8.054;2023-03-03T05:48:09;100221.84;;;-4.95;100.00
35908;BME280;22003;50.320;8.054;2023-03-03T05:50:36;100221.91;;;-4.99;100.00
35908;BME280;22003;50.320;8.054;2023-03-03T05:53:01;100218.50;;;-5.08;100.00
35908;BME280;22003;50.320;8.054;2023-03-03T05:55:32;100152.47;;;-5.50;100.00
35908;BME280;22003;50.320;8.054;2023-03-03T05:57:57;100178.31;;;-5.51;100.00
35908;BME280;22003;50.320;8.054;2023-03-03T06:00:22;100151.72;;;-5.67;100.00
35908;BME280;22003;50.320;8.054;2023-03-03T06:02:48;100200.63;;;-5.41;100.00
35908;BME280;22003;50.320;8.054;2023-03-03T06:05:13;100241.84;;;-5.20;100.00
35908;BME280;22003;50.320;8.054;2023-03-03T06:07:38;100155.22;;;-5.77;100.00
35908;BME280;22003;50.320;8.054;2023-03-03T06:10:04;100139.78;;;-5.84;100.00
35908;BME280;22003;50.320;8.054;2023-03-03T06:12:30;100184.91;;;-5.08;100.00
35908;BME280;22003;50.320;8.054;2023-03-03T06:14:55;100151.75;;;-5.66;100.00
35908;BME280;22003;50.320;8.054;2023-03-03T06:17:21;100217.88;;;-5.46;100.00
35908;BME280;22003;50.320;8.054;2023-03-03T06:19:46;100200.78;;;-5.66;100.00
35908;BME280;22003;50.320;8.054;2023-03-03T06:22:12;100170.84;;;-5.96;100.00
35908;BME280;22003;50.320;8.054;2023-03-03T06:24:38;100220.41;;;-5.33;100.00
35908;BME280;22003;50.320;8.054;2023-03-03T06:27:03;100114.94;;;-5.94;100.00
35908;BME280;22003;50.320;8.054;2023-03-03T06:29:28;100225.28;;;-4.96;100.00
35908;BME280;22003;50.320;8.054;2023-03-03T06:31:54;100225.28;;;-4.94;100.00
35908;BME280;22003;50.320;8.054;2023-03-03T06:34:19;100251.69;;;-4.56;100.00
35908;BME280;22003;50.320;8.054;2023-03-03T06:36:44;100181.47;;;-5.11;100.00
35908;BME280;22003;50.320;8.054;2023-03-03T06:39:10;100249.00;;;-4.42;100.00
35908;BME280;22003;50.320;8.054;2023-03-03T06:41:36;100258.19;;;-4.10;100.00
35908;BME280;22003;50.320;8.054;2023-03-03T06:44:01;100248.75;;;-4.17;100.00
35908;BME280;22003;50.320;8.054;2023-03-03T06:46:26;100289.53;;;-3.59;100.00
35908;BME280;22003;50.320;8.054;2023-03-03T06:48:52;100238.22;;;-3.30;100.00
35908;BME280;22003;50.320;8.054;2023-03-03T06:51:44;100293.22;;;-2.52;100.00
35908;BME280;22003;50.320;8.054;2023-03-03T06:54:15;100288.69;;;-2.38;100.00
35908;BME280;22003;50.320;8.054;2023-03-03T06:56:42;100301.25;;;-2.14;100.00
35908;BME280;22003;50.320;8.054;2023-03-03T06:59:12;100306.34;;;-2.09;100.00
35908;BME280;22003;50.320;8.054;2023-03-03T07:01:39;100301.50;;;-2.27;100.00
35908;BME280;22003;50.320;8.054;2023-03-03T07:04:28;100292.75;;;-2.22;100.00
35908;BME280;22003;50.320;8.054;2023-03-03T07:06:59;100285.03;;;-2.26;100.00
35908;BME280;22003;50.320;8.054;2023-03-03T07:09:30;100306.41;;;-2.12;100.00
35908;BME280;22003;50.320;8.054;2023-03-03T07:12:00;100325.16;;;-1.96;100.00
35908;BME280;22003;50.320;8.054;2023-03-03T07:14:26;100310.44;;;-1.94;100.00
35908;BME280;22003;50.320;8.054;2023-03-03T07:17:01;100321.56;;;-1.89;100.00
35908;BME280;22003;50.320;8.054;2023-03-03T07:19:34;100327.56;;;-1.86;100.00
35908;BME280;22003;50.320;8.054;2023-03-03T07:22:11;100355.81;;;-1.67;100.00
35908;BME280;22003;50.320;8.054;2023-03-03T07:24:39;100360.06;;;-1.63;100.00
35908;BME280;22003;50.320;8.054;2023-03-03T07:29:30;100358.28;;;-1.61;100.00
35908;BME280;22003;50.320;8.054;2023-03-03T07:31:57;100355.63;;;-1.58;100.00
35908;BME280;22003;50.320;8.054;2023-03-03T07:34:45;100339.34;;;-1.68;100.00
35908;BME280;22003;50.320;8.054;2023-03-03T07:37:35;100359.69;;;-1.43;100.00
35908;BME280;22003;50.320;8.054;2023-03-03T07:40:24;100355.44;;;-1.47;100.00
35908;BME280;22003;50.320;8.054;2023-03-03T07:42:53;100353.78;;;-1.50;100.00
35908;BME280;22003;50.320;8.054;2023-03-03T07:45:26;100378.53;;;-1.32;100.00
35908;BME280;22003;50.320;8.054;2023-03-03T07:47:56;100370.06;;;-1.42;100.00
35908;BME280;22003;50.320;8.054;2023-03-03T07:50:24;100348.28;;;-1.36;100.00
35908;BME280;22003;50.320;8.054;2023-03-03T07:53:00;100351.09;;;-1.47;100.00
35908;BME280;22003;50.320;8.054;2023-03-03T07:55:38;100365.59;;;-1.35;100.00
35908;BME280;22003;50.320;8.054;2023-03-03T08:03:11;100344.69;;;-1.29;100.00
35908;BME280;22003;50.320;8.054;2023-03-03T08:05:42;100385.47;;;-0.89;100.00
35908;BME280;22003;50.320;8.054;2023-03-03T08:10:54;100384.41;;;-0.81;100.00
35908;BME280;22003;50.320;8.054;2023-03-03T08:13:22;100384.34;;;-0.76;100.00
35908;BME280;22003;50.320;8.054;2023-03-03T08:16:23;100363.91;;;-0.94;100.00
35908;BME280;22003;50.320;8.054;2023-03-03T08:18:50;100382.63;;;-0.77;100.00
35908;BME280;22003;50.320;8.054;2023-03-03T08:21:22;100383.16;;;-0.63;100.00
35908;BME280;22003;50.320;8.054;2023-03-03T08:23:48;100369.13;;;-0.56;100.00
35908;BME280;22003;50.320;8.054;2023-03-03T08:26:16;100393.25;;;-0.47;100.00
35908;BME280;22003;50.320;8.054;2023-03-03T08:28:42;100334.06;;;-0.78;100.00
35908;BME280;22003;50.320;8.054;2023-03-03T08:31:10;100231.38;;;-1.38;100.00
35908;BME280;22003;50.320;8.054;2023-03-03T08:33:43;100384.72;;;-0.56;100.00
35908;BME280;22003;50.320;8.054;2023-03-03T08:36:08;100332.19;;;-0.71;100.00
35908;BME280;22003;50.320;8.054;2023-03-03T08:38:34;100394.19;;;-0.50;100.00
35908;BME280;22003;50.320;8.054;2023-03-03T08:40:59;100393.75;;;-0.32;100.00
35908;BME280;22003;50.320;8.054;2023-03-03T08:43:25;100400.31;;;-0.17;100.00
35908;BME280;22003;50.320;8.054;2023-03-03T08:45:53;100335.41;;;-0.60;100.00
35908;BME280;22003;50.320;8.054;2023-03-03T08:48:22;100372.22;;;-0.40;100.00
35908;BME280;22003;50.320;8.054;2023-03-03T08:50:47;100375.06;;;-0.50;100.00
35908;BME280;22003;50.320;8.054;2023-03-03T08:53:13;100397.66;;;-0.14;100.00
35908;BME280;22003;50.320;8.054;2023-03-03T08:55:40;100264.25;;;-0.96;100.00
35908;BME280;22003;50.320;8.054;2023-03-03T08:58:05;100288.25;;;-0.85;100.00
35908;BME280;22003;50.320;8.054;2023-03-03T09:00:31;100407.22;;;0.21;100.00
35908;BME280;22003;50.320;8.054;2023-03-03T09:02:56;100363.59;;;-0.05;100.00
35908;BME280;22003;50.320;8.054;2023-03-03T09:05:22;100395.34;;;0.10;100.00
35908;BME280;22003;50.320;8.054;2023-03-03T09:07:48;100195.81;;;-0.98;100.00
35908;BME280;22003;50.320;8.054;2023-03-03T09:10:19;100317.44;;;0.01;100.00
35908;BME280;22003;50.320;8.054;2023-03-03T09:12:47;100358.56;;;0.22;100.00
35908;BME280;22003;50.320;8.054;2023-03-03T09:15:19;100346.97;;;-0.01;100.00
35908;BME280;22003;50.320;8.054;2023-03-03T09:17:45;100410.22;;;0.40;99.96
35908;BME280;22003;50.320;8.054;2023-03-03T09:20:21;100318.59;;;-0.11;100.00
35908;BME280;22003;50.320;8.054;2023-03-03T09:22:48;100405.56;;;0.19;99.71
35908;BME280;22003;50.320;8.054;2023-03-03T09:25:34;100390.94;;;0.13;99.25
35908;BME280;22003;50.320;8.054;2023-03-03T09:28:01;100403.59;;;0.29;98.70
35908;BME280;22003;50.320;8.054;2023-03-03T09:30:38;100432.84;;;0.38;98.25
35908;BME280;22003;50.320;8.054;2023-03-03T09:33:30;100363.31;;;0.06;98.29
35908;BME280;22003;50.320;8.054;2023-03-03T09:36:35;100429.25;;;0.76;98.75
35908;BME280;22003;50.320;8.054;2023-03-03T09:39:13;100412.28;;;0.60;96.91
35908;BME280;22003;50.320;8.054;2023-03-03T09:47:46;100432.72;;;0.77;96.84
35908;BME280;22003;50.320;8.054;2023-03-03T09:57:13;100388.38;;;1.08;95.11
35908;BME280;22003;50.320;8.054;2023-03-03T10:00:02;100418.38;;;1.52;92.86
35908;BME280;22003;50.320;8.054;2023-03-03T10:02:45;100432.56;;;1.44;93.06
35908;BME280;22003;50.320;8.054;2023-03-03T10:05:23;100377.72;;;1.44;92.27
35908;BME280;22003;50.320;8.054;2023-03-03T10:10:52;100409.41;;;2.42;86.07
35908;BME280;22003;50.320;8.054;2023-03-03T10:13:34;100378.94;;;1.62;89.73
35908;BME280;22003;50.320;8.054;2023-03-03T10:16:16;100450.78;;;1.75;89.79
35908;BME280;22003;50.320;8.054;2023-03-03T10:18:51;100291.97;;;0.74;89.66
35908;BME280;22003;50.320;8.054;2023-03-03T10:21:29;100346.66;;;1.07;90.89
35908;BME280;22003;50.320;8.054;2023-03-03T10:24:28;100467.63;;;1.65;91.16
35908;BME280;22003;50.320;8.054;2023-03-03T10:30:01;100405.16;;;2.13;87.91
35908;BME280;22003;50.320;8.054;2023-03-03T10:35:15;100461.09;;;1.79;88.68
35908;BME280;22003;50.320;8.054;2023-03-03T10:40:26;100481.78;;;1.28;90.95
35908;BME280;22003;50.320;8.054;2023-03-03T10:49:13;100477.03;;;1.70;89.47
35908;BME280;22003;50.320;8.054;2023-03-03T10:56:56;100447.19;;;1.79;89.07
35908;BME280;22003;50.320;8.054;2023-03-03T10:59:48;100471.59;;;2.59;90.03
35908;BME280;22003;50.320;8.054;2023-03-03T11:05:21;100449.03;;;3.06;86.15
35908;BME280;22003;50.320;8.054;2023-03-03T11:07:59;100445.31;;;2.37;85.65
35908;BME280;22003;50.320;8.054;2023-03-03T11:13:20;100402.06;;;2.78;83.94
35908;BME280;22003;50.320;8.054;2023-03-03T11:16:13;100375.72;;;3.06;83.53
35908;BME280;22003;50.320;8.054;2023-03-03T11:19:01;100438.31;;;3.59;82.77
35908;BME280;22003;50.320;8.054;2023-03-03T11:21:42;100452.13;;;3.86;82.08
35908;BME280;22003;50.320;8.054;2023-03-03T11:27:18;100451.88;;;3.47;83.04
35908;BME280;22003;50.320;8.054;2023-03-03T11:30:06;100426.66;;;3.21;81.90
35908;BME280;22003;50.320;8.054;2023-03-03T11:32:48;100409.81;;;3.95;79.81
35908;BME280;22003;50.320;8.054;2023-03-03T11:37:58;100418.03;;;3.86;79.00
35908;BME280;22003;50.320;8.054;2023-03-03T11:43:29;100382.13;;;3.44;80.19
35908;BME280;22003;50.320;8.054;2023-03-03T11:46:00;100383.47;;;3.77;79.58
35908;BME280;22003;50.320;8.054;2023-03-03T11:48:35;100415.91;;;4.38;78.22
35908;BME280;22003;50.320;8.054;2023-03-03T11:51:10;100396.03;;;3.90;77.66
35908;BME280;22003;50.320;8.054;2023-03-03T11:54:33;100406.09;;;4.84;76.51
35908;BME280;22003;50.320;8.054;2023-03-03T11:57:18;100342.53;;;4.57;77.07
35908;BME280;22003;50.320;8.054;2023-03-03T12:02:50;100395.78;;;5.38;73.35
35908;BME280;22003;50.320;8.054;2023-03-03T12:05:41;100384.63;;;5.70;73.17
35908;BME280;22003;50.320;8.054;2023-03-03T12:08:24;100384.72;;;5.31;73.27
35908;BME280;22003;50.320;8.054;2023-03-03T12:13:49;100371.34;;;5.73;72.63
35908;BME280;22003;50.320;8.054;2023-03-03T12:16:24;100169.38;;;3.58;74.52
35908;BME280;22003;50.320;8.054;2023-03-03T12:29:42;100360.41;;;5.64;72.76
35908;BME280;22003;50.320;8.054;2023-03-03T12:32:21;100361.97;;;5.68;73.39
35908;BME280;22003;50.320;8.054;2023-03-03T12:35:03;100357.44;;;5.89;73.01
35908;BME280;22003;50.320;8.054;2023-03-03T12:37:58;100325.13;;;6.56;69.06
35908;BME280;22003;50.320;8.054;2023-03-03T12:41:02;100311.59;;;6.79;70.28
35908;BME280;22003;50.320;8.054;2023-03-03T12:43:58;100299.13;;;6.99;67.41
35908;BME280;22003;50.320;8.054;2023-03-03T12:46:43;100319.97;;;7.19;68.09
35908;BME280;22003;50.320;8.054;2023-03-03T12:49:10;100289.69;;;7.26;67.56
35908;BME280;22003;50.320;8.054;2023-03-03T12:52:00;100321.66;;;7.04;69.41
35908;BME280;22003;50.320;8.054;2023-03-03T12:54:49;100306.84;;;7.65;66.95
35908;BME280;22003;50.320;8.054;2023-03-03T13:00:23;100320.81;;;7.04;68.04
35908;BME280;22003;50.320;8.054;2023-03-03T13:08:21;100290.41;;;7.30;67.06
35908;BME280;22003;50.320;8.054;2023-03-03T13:11:06;100281.03;;;6.26;69.19
35908;BME280;22003;50.320;8.054;2023-03-03T13:16:30;100282.50;;;6.32;70.77
35908;BME280;22003;50.320;8.054;2023-03-03T13:19:21;100255.06;;;6.03;70.10
35908;BME280;22003;50.320;8.054;2023-03-03T13:21:54;100259.88;;;6.78;69.41
35908;BME280;22003;50.320;8.054;2023-03-03T13:26:57;100282.38;;;7.15;68.25
35908;BME280;22003;50.320;8.054;2023-03-03T13:29:55;100263.19;;;7.13;67.15
35908;BME280;22003;50.320;8.054;2023-03-03T13:32:31;100263.28;;;6.96;67.17
35908;BME280;22003;50.320;8.054;2023-03-03T13:35:23;100283.47;;;8.19;64.08
35908;BME280;22003;50.320;8.054;2023-03-03T13:37:55;100245.22;;;7.82;64.51
35908;BME280;22003;50.320;8.054;2023-03-03T13:40:25;100258.63;;;8.37;62.51
35908;BME280;22003;50.320;8.054;2023-03-03T13:42:59;100244.50;;;8.53;63.72
35908;BME280;22003;50.320;8.054;2023-03-03T13:45:38;100266.09;;;8.59;62.09
35908;BME280;22003;50.320;8.054;2023-03-03T13:48:42;100277.72;;;7.82;64.68
35908;BME280;22003;50.320;8.054;2023-03-03T13:51:48;100263.53;;;8.86;62.61
35908;BME280;22003;50.320;8.054;2023-03-03T13:54:42;100215.81;;;8.89;60.42
35908;BME280;22003;50.320;8.054;2023-03-03T13:57:22;100265.09;;;8.32;62.68
35908;BME280;22003;50.320;8.054;2023-03-03T14:00:10;100253.19;;;8.69;61.33
35908;BME280;22003;50.320;8.054;2023-03-03T14:13:58;100252.66;;;8.05;62.21
35908;BME280;22003;50.320;8.054;2023-03-03T14:19:09;100247.59;;;7.86;65.21
35908;BME280;22003;50.320;8.054;2023-03-03T14:21:42;100220.00;;;7.16;65.57
35908;BME280;22003;50.320;8.054;2023-03-03T14:24:19;100262.94;;;7.50;66.42
35908;BME280;22003;50.320;8.054;2023-03-03T14:26:56;100255.06;;;7.48;66.03
35908;BME280;22003;50.320;8.054;2023-03-03T14:29:30;100245.38;;;8.09;64.45
35908;BME280;22003;50.320;8.054;2023-03-03T14:32:01;100226.47;;;7.86;65.92
35908;BME280;22003;50.320;8.054;2023-03-03T14:34:38;100227.72;;;7.51;65.03
35908;BME280;22003;50.320;8.054;2023-03-03T14:37:27;100234.53;;;7.39;67.11
35908;BME280;22003;50.320;8.054;2023-03-03T14:40:21;100229.16;;;7.40;67.87
35908;BME280;22003;50.320;8.054;2023-03-03T14:42:48;100256.16;;;7.60;68.52
35908;BME280;22003;50.320;8.054;2023-03-03T14:45:38;100258.78;;;7.14;70.38
35908;BME280;22003;50.320;8.054;2023-03-03T14:48:21;100255.28;;;7.13;68.87
35908;BME280;22003;50.320;8.054;2023-03-03T14:50:52;100250.84;;;7.76;69.42
35908;BME280;22003;50.320;8.054;2023-03-03T14:55:45;100242.19;;;8.18;67.67
35908;BME280;22003;50.320;8.054;2023-03-03T14:58:35;100243.47;;;8.41;67.77
35908;BME280;22003;50.320;8.054;2023-03-03T15:01:29;100236.41;;;8.41;66.51
35908;BME280;22003;50.320;8.054;2023-03-03T15:06:42;100245.25;;;7.96;67.90
35908;BME280;22003;50.320;8.054;2023-03-03T15:11:58;100238.38;;;7.93;69.01
35908;BME280;22003;50.320;8.054;2023-03-03T15:14:34;100243.56;;;7.95;68.21
35908;BME280;22003;50.320;8.054;2023-03-03T15:17:40;100235.03;;;8.06;67.03
35908;BME280;22003;50.320;8.054;2023-03-03T15:22:48;100208.81;;;7.43;68.52
35908;BME280;22003;50.320;8.054;2023-03-03T15:25:23;100236.75;;;7.31;70.10
35908;BME280;22003;50.320;8.054;2023-03-03T15:27:58;100239.38;;;7.31;71.13
35908;BME280;22003;50.320;8.054;2023-03-03T15:30:38;100210.50;;;6.82;71.99
35908;BME280;22003;50.320;8.054;2023-03-03T15:33:24;100195.59;;;7.28;71.07
35908;BME280;22003;50.320;8.054;2023-03-03T15:36:13;100197.09;;;7.32;70.17
35908;BME280;22003;50.320;8.054;2023-03-03T15:38:51;100200.69;;;7.31;70.68
35908;BME280;22003;50.320;8.054;2023-03-03T15:41:37;100212.53;;;6.61;72.46
35908;BME280;22003;50.320;8.054;2023-03-03T15:44:27;100211.25;;;6.68;72.11
35908;BME280;22003;50.320;8.054;2023-03-03T15:52:36;100217.53;;;6.81;73.29
35908;BME280;22003;50.320;8.054;2023-03-03T15:58:28;100199.63;;;6.56;72.20
35908;BME280;22003;50.320;8.054;2023-03-03T16:01:16;100234.09;;;6.52;72.92
35908;BME280;22003;50.320;8.054;2023-03-03T16:04:04;100223.97;;;6.60;71.98
35908;BME280;22003;50.320;8.054;2023-03-03T16:09:15;100253.50;;;6.33;74.26